Morrow, OH (45152)

9:26 AM EST on January 27, 2015 (GMT -0500)
Cabin Bright - World HQ | Change Station
CLOSE
Current Station
Personal Weather Station
Location: Lebanon, OH
Elevation: 906 ft
Nearby Weather Stations

Elev 906 ft 39.39 °N, 84.14 °W | Updated 1 minute ago

Clear
Clear
17.5 °F
Feels Like 18 °F
N
1.0
Wind Variable Wind from North
Gusts 2.0 mph

Today
High -- | Low -- °F
--% Chance of Precip.
Yesterday
High -- | Low -- °F
Precip. -- in
7:47 AM 5:50 PM
First Quarter, 54% visible
Pressure 30.14 in
Visibility 5.0 miles
Clouds Clear
Windchill 18 °F
Dew Point 13 °F
Humidity 83%
Rainfall 0.00 in
Snow Depth Not available.
UV 0.0 out of 12
Pollen .10 out of 12
Air Quality Not available.
Flu Activity Not available.
METAR KILN 271354Z AUTO 03005KT 5SM HZ CLR M10/M13 A3001 RMK AO2 SLP205 T11001128

More Conditions Fewer Conditions

Pressure 30.14 in
Visibility 5.0 miles
Clouds Clear
Windchill 18 °F
Dew Point 13 °F
Humidity 83%
Rainfall 0.00 in
Snow Depth Not available.
UV 0.0 out of 12
Pollen .10 out of 12
Air Quality Not available.
Flu Activity Not available.
METAR KILN 271354Z AUTO 03005KT 5SM HZ CLR M10/M13 A3001 RMK AO2 SLP205 T11001128

More Conditions Fewer Conditions

10-Day Weather Forecast

Almanac

Astronomy

Jan. 27, 2015 Rise Set
Actual Time
Civil Twilight
Nautical Twilight
Astronomical Twilight
Moon
Length of Visible Light
Length of Day
Tomorrow will be .
, % of the Moon is Illuminated

Today's Extremes

State Highs State Lows

Community

WunderPhotos

Upload Photos

1,790,648 photos uploaded!

WunderBlogs® & News

Nearby

Air Quality

  Air Quality AQ Index Pollutant
Not available.

Snow Depth

Station Depth Elevation

Earthquake Activity

City Distance Mag. Time & Date
Minimum magnitude displayed is 2.5.

Coastal Water Temperatures

Place Temperature

Nearby Weather Stations